Alameda, California
Current Conditions -  °F | °C
As of 11:53 PM on Thursday 30 Oct 2014 (Local Time) from KOAK Reporting Station
Scattered Clouds Scattered Clouds  
Wind Chill: 62°   Ceiling: Unl
Heat Index: 62°   Visibility: 10mi
Dew Point: 55°   Wind: 12mph
Humidity: 78%   Direction: 220°SW
Pressure: 29.91"   Gusts: NA
Location:  37.77°N, 122.24°W
Report Text: KOAK 310653Z 22010KT 10SM FEW010 SCT180 17/13 A2991 RMK AO2 SLP128 T01670128
Loading
Personal Weather Stations






























Interactive Weather Map
Tropical Storm Tracking
New forecast layout! Learn more

10-Day Weather Forecast

Advertisements
Track Severe Weather on mobile